createdAt,value
2019-05-23T00:04:36.186Z,14.63
2019-05-23T00:09:43.839Z,13.81
2019-05-23T00:14:51.434Z,13.52
2019-05-23T00:19:59.093Z,14.09
2019-05-23T00:25:06.678Z,14.47
2019-05-23T00:30:14.340Z,15.22
2019-05-23T00:35:21.948Z,14.58
2019-05-23T00:40:29.563Z,13.96
2019-05-23T00:45:37.154Z,13.28
2019-05-23T00:50:44.771Z,12.20
2019-05-23T00:55:52.385Z,12.35
2019-05-23T01:01:00.030Z,12.41
2019-05-23T01:06:07.618Z,13.13
2019-05-23T01:11:15.321Z,12.61
2019-05-23T01:16:22.921Z,11.89
2019-05-23T01:21:30.600Z,12.24
2019-05-23T01:26:38.196Z,12.26
2019-05-23T01:31:45.865Z,11.98
2019-05-23T01:36:53.452Z,11.93
2019-05-23T01:42:01.255Z,12.93
2019-05-23T01:47:08.834Z,14.30
2019-05-23T01:52:16.504Z,13.75
2019-05-23T01:57:24.099Z,14.03
2019-05-23T02:02:31.774Z,15.07
2019-05-23T02:07:39.343Z,17.29
2019-05-23T02:12:47.040Z,18.49
2019-05-23T02:17:54.648Z,17.83
2019-05-23T02:23:02.286Z,18.19
2019-05-23T02:28:09.882Z,18.29
2019-05-23T02:33:17.521Z,17.66
2019-05-23T02:38:25.083Z,18.06
2019-05-23T02:43:32.779Z,18.65
2019-05-23T02:48:40.383Z,17.90
2019-05-23T02:53:48.028Z,17.42
2019-05-23T02:58:55.658Z,16.46
2019-05-23T03:04:03.332Z,16.89
2019-05-23T03:09:10.933Z,16.96
2019-05-23T03:14:18.598Z,17.61
2019-05-23T03:19:26.196Z,17.77
2019-05-23T03:24:33.899Z,18.81
2019-05-23T03:29:41.502Z,19.00
2019-05-23T03:34:49.155Z,18.98
2019-05-23T03:39:56.760Z,19.17
2019-05-23T03:45:04.372Z,19.29
2019-05-23T03:50:11.952Z,17.99
2019-05-23T03:55:19.603Z,17.50
2019-05-23T04:00:27.211Z,17.52
2019-05-23T04:05:35.039Z,18.65
2019-05-23T04:10:42.646Z,16.16
2019-05-23T04:15:50.275Z,17.75
2019-05-23T04:20:57.857Z,15.85
2019-05-23T04:26:05.466Z,15.95
2019-05-23T04:31:13.488Z,15.99
2019-05-23T04:36:20.229Z,16.21
2019-05-23T04:41:27.829Z,16.38
2019-05-23T04:46:35.480Z,17.25
2019-05-23T04:51:43.091Z,18.60
2019-05-23T04:56:50.721Z,18.92
2019-05-23T05:01:58.318Z,22.13
2019-05-23T05:07:05.947Z,19.39
2019-05-23T05:12:13.544Z,20.64
2019-05-23T05:17:21.185Z,22.41
2019-05-23T05:22:28.786Z,22.78
2019-05-23T05:27:36.454Z,20.89
2019-05-23T05:32:45.577Z,20.69
2019-05-23T05:37:51.219Z,20.11
2019-05-23T05:42:58.818Z,21.14
2019-05-23T05:48:06.475Z,23.63
2019-05-23T05:53:14.107Z,21.26
2019-05-23T05:58:21.747Z,21.59
2019-05-23T06:03:29.330Z,21.62
2019-05-23T06:08:37.045Z,22.31
2019-05-23T06:13:44.598Z,21.78
2019-05-23T06:18:52.230Z,23.87
2019-05-23T06:23:59.820Z,22.40
2019-05-23T06:29:07.581Z,23.79
2019-05-23T06:34:15.167Z,22.40
2019-05-23T06:39:22.831Z,22.77
2019-05-23T06:44:30.421Z,23.50
2019-05-23T06:49:38.045Z,23.90
2019-05-23T06:54:45.650Z,23.85
2019-05-23T06:59:53.378Z,24.00
2019-05-23T07:05:00.974Z,23.03
2019-05-23T07:10:08.883Z,22.05
2019-05-23T07:15:15.779Z,22.49
2019-05-23T07:20:23.507Z,22.31
2019-05-23T07:25:31.069Z,21.06
2019-05-23T07:30:38.843Z,21.12
2019-05-23T07:35:46.431Z,20.13
2019-05-23T07:40:54.106Z,16.11
2019-05-23T07:46:01.695Z,16.32
2019-05-23T07:51:09.363Z,18.62
2019-05-23T07:56:16.919Z,14.62
2019-05-23T08:01:24.575Z,14.64
2019-05-23T08:06:32.165Z,14.57
2019-05-23T08:11:39.829Z,15.12
2019-05-23T08:16:47.423Z,17.15
2019-05-23T08:21:55.080Z,19.14
2019-05-23T08:27:02.642Z,16.50
2019-05-23T08:32:10.155Z,15.52
2019-05-23T08:37:17.769Z,15.43
2019-05-23T08:42:25.448Z,14.70
2019-05-23T08:47:33.059Z,13.17
2019-05-23T08:52:40.691Z,11.94
2019-05-23T08:57:48.318Z,12.33
2019-05-23T09:02:58.562Z,11.00
2019-05-23T09:08:03.079Z,10.16
2019-05-23T09:13:10.740Z,11.61
2019-05-23T09:18:18.326Z,11.55
2019-05-23T09:23:25.998Z,10.71
2019-05-23T09:28:33.569Z,9.70
2019-05-23T09:33:41.251Z,11.36
2019-05-23T09:38:48.831Z,11.26
2019-05-23T09:43:56.474Z,11.07
2019-05-23T09:49:04.080Z,10.56
2019-05-23T09:54:11.762Z,11.39
2019-05-23T09:59:19.359Z,10.26
2019-05-23T10:04:27.190Z,10.57
2019-05-23T10:09:34.773Z,10.94
2019-05-23T10:14:42.441Z,9.84
2019-05-23T10:19:50.042Z,10.77
2019-05-23T10:24:57.742Z,10.21
2019-05-23T10:30:05.349Z,10.20
2019-05-23T10:35:12.995Z,10.26
2019-05-23T10:40:20.575Z,10.51
2019-05-23T10:45:28.240Z,9.35
2019-05-23T10:50:44.660Z,9.43
2019-05-23T10:55:43.015Z,9.65
2019-05-23T11:00:50.625Z,9.23
2019-05-23T11:05:58.224Z,9.53
2019-05-23T11:11:05.814Z,8.54
2019-05-23T11:16:13.458Z,9.66
2019-05-23T11:21:21.100Z,8.43
2019-05-23T11:26:28.704Z,8.72
2019-05-23T11:31:36.288Z,8.59
2019-05-23T11:36:43.916Z,8.89
2019-05-23T11:41:51.504Z,8.55
2019-05-23T11:46:59.171Z,7.76
2019-05-23T11:52:06.768Z,9.71
2019-05-23T11:57:14.408Z,8.34
2019-05-23T12:02:22.027Z,8.42
2019-05-23T12:07:29.691Z,8.03
2019-05-23T12:12:37.303Z,8.47
2019-05-23T12:17:44.967Z,7.80
2019-05-23T12:22:52.635Z,8.03
2019-05-23T12:28:00.229Z,7.94
2019-05-23T12:33:07.832Z,7.55
2019-05-23T12:38:15.487Z,7.82
2019-05-23T12:43:23.089Z,7.81
2019-05-23T12:48:30.717Z,7.32
2019-05-23T12:53:38.313Z,8.34
2019-05-23T12:58:45.911Z,7.76
2019-05-23T13:03:53.506Z,7.31
2019-05-23T13:09:01.143Z,8.37
2019-05-23T13:14:08.774Z,7.94
2019-05-23T13:19:16.615Z,6.40
2019-05-23T13:24:24.094Z,6.27
2019-05-23T13:29:31.789Z,5.70
2019-05-23T13:34:39.377Z,5.27
2019-05-23T13:39:47.146Z,4.13
2019-05-23T13:44:54.750Z,4.54
2019-05-23T13:50:02.457Z,3.99
2019-05-23T13:55:10.065Z,4.41
2019-05-23T14:00:17.743Z,4.16
2019-05-23T14:05:25.364Z,3.77
2019-05-23T14:10:32.992Z,3.98
2019-05-23T14:15:40.609Z,3.60
2019-05-23T14:20:48.299Z,3.65
2019-05-23T14:25:55.902Z,4.10
2019-05-23T14:31:03.721Z,3.71
2019-05-23T14:36:11.296Z,3.84
2019-05-23T14:41:18.974Z,3.77
2019-05-23T14:46:26.575Z,3.74
2019-05-23T14:51:34.246Z,4.17
2019-05-23T14:56:41.841Z,3.79
2019-05-23T15:01:49.582Z,3.90
2019-05-23T15:06:57.199Z,3.99
2019-05-23T15:12:04.835Z,3.73
2019-05-23T15:17:12.445Z,3.80
2019-05-23T15:22:20.124Z,3.35
2019-05-23T15:27:27.699Z,3.54
2019-05-23T15:32:35.325Z,3.44
2019-05-23T15:37:42.968Z,3.49
2019-05-23T15:42:50.623Z,3.45
2019-05-23T15:47:58.224Z,3.33
2019-05-23T15:53:05.874Z,3.51
2019-05-23T15:58:13.485Z,3.53
2019-05-23T16:03:21.256Z,3.60
2019-05-23T16:08:28.855Z,3.60
2019-05-23T16:13:36.511Z,3.31
2019-05-23T16:18:44.107Z,3.46
2019-05-23T16:23:51.741Z,3.44
2019-05-23T16:28:59.354Z,3.66
2019-05-23T16:34:07.239Z,3.32
2019-05-23T16:39:14.208Z,3.18
2019-05-23T16:44:21.933Z,3.46
2019-05-23T16:49:29.533Z,3.29
2019-05-23T16:54:37.210Z,3.46
2019-05-23T16:59:44.787Z,3.59
2019-05-23T17:05:08.594Z,3.16
2019-05-23T17:10:08.544Z,3.32
2019-05-23T17:15:06.738Z,3.34
2019-05-23T17:20:19.567Z,3.24
2019-05-23T17:25:21.590Z,3.13
2019-05-23T17:30:29.183Z,3.18
2019-05-23T17:35:36.906Z,3.42
2019-05-23T17:40:44.508Z,3.01
2019-05-23T17:45:52.151Z,3.09
2019-05-23T17:50:59.795Z,3.56
2019-05-23T17:56:07.425Z,2.92
2019-05-23T18:01:15.007Z,3.73
2019-05-23T18:06:22.702Z,4.11
2019-05-23T18:11:30.392Z,4.68
2019-05-23T18:16:38.117Z,4.46
2019-05-23T18:21:45.731Z,4.23
2019-05-23T18:26:53.414Z,4.38
2019-05-23T18:32:01.010Z,4.16
2019-05-23T18:37:08.676Z,4.30
2019-05-23T18:42:16.363Z,4.25
2019-05-23T18:47:24.075Z,4.09
2019-05-23T18:52:31.673Z,4.09
2019-05-23T18:57:39.331Z,4.24
2019-05-23T19:02:46.948Z,4.28
2019-05-23T19:07:54.673Z,4.43
2019-05-23T19:13:02.286Z,4.22
2019-05-23T19:18:09.956Z,4.59
2019-05-23T19:23:17.571Z,5.27
2019-05-23T19:28:25.267Z,5.88
2019-05-23T19:33:32.865Z,5.50
2019-05-23T19:38:40.625Z,5.38
2019-05-23T19:43:48.404Z,4.27
2019-05-23T19:48:56.012Z,4.02
2019-05-23T19:54:03.626Z,4.05
2019-05-23T19:59:11.266Z,3.85
2019-05-23T20:04:18.887Z,4.15
2019-05-23T20:09:26.503Z,3.69
2019-05-23T20:14:34.103Z,3.81
2019-05-23T20:19:41.794Z,3.51
2019-05-23T20:24:49.412Z,3.66
2019-05-23T20:29:57.096Z,3.63
2019-05-23T20:35:04.719Z,3.37
2019-05-23T20:40:12.512Z,3.62
2019-05-23T20:45:20.086Z,3.92
2019-05-23T20:50:27.989Z,3.59
2019-05-23T20:55:35.638Z,3.91
2019-05-23T21:00:43.255Z,3.58
2019-05-23T21:05:50.865Z,3.65
2019-05-23T21:10:58.505Z,3.92
2019-05-23T21:16:06.157Z,3.97
2019-05-23T21:21:13.799Z,3.99
2019-05-23T21:26:21.424Z,4.27
2019-05-23T21:31:29.261Z,4.15
2019-05-23T21:36:36.877Z,4.13
2019-05-23T21:41:44.576Z,4.25
2019-05-23T21:46:52.113Z,4.35
2019-05-23T21:52:00.042Z,4.47
2019-05-23T21:57:07.633Z,4.38
2019-05-23T22:02:15.317Z,4.59
2019-05-23T22:07:22.908Z,4.37
2019-05-23T22:12:30.589Z,4.77
2019-05-23T22:17:38.179Z,4.87
2019-05-23T22:22:45.819Z,5.04
2019-05-23T22:27:53.426Z,4.75
2019-05-23T22:33:01.196Z,5.25
2019-05-23T22:38:08.810Z,4.72
2019-05-23T22:43:21.188Z,4.73
2019-05-23T22:48:23.547Z,4.40
2019-05-23T22:53:31.225Z,4.23
2019-05-23T22:58:38.807Z,4.23
2019-05-23T23:03:46.431Z,3.87
2019-05-23T23:08:54.046Z,3.88
2019-05-23T23:14:01.688Z,4.44
2019-05-23T23:19:09.363Z,4.50
2019-05-23T23:24:16.937Z,4.69
2019-05-23T23:29:24.542Z,4.35
2019-05-23T23:34:32.230Z,4.85
2019-05-23T23:39:39.857Z,4.73
2019-05-23T23:44:47.514Z,4.64
2019-05-23T23:49:55.102Z,4.32
2019-05-23T23:55:02.718Z,4.78
